Time;durP1;ratioP1;P1;durP2;ratioP2;P2;SDS_P1;SDS_P2;PMS_P1;PMS_P2;Temp;Humidity;BMP_temperature;BMP_pressure;BME280_temperature;BME280_humidity;BME280_pressure;Samples;Min_cycle;Max_cycle;Signal;HPM_P1;HPM_P2
2021/10/25 00:01:34;;;;;;;4.03;2.10;;;;;;;6.71;62.95;102161.48;1752596;80;21537;-72
2021/10/25 00:04:01;;;;;;;5.80;2.33;;;;;;;6.68;63.08;102171.98;1752715;82;20968;-71
2021/10/25 00:06:27;;;;;;;5.78;3.02;;;;;;;6.68;63.12;102175.05;1752784;81;20976;-71
2021/10/25 00:08:54;;;;;;;3.00;2.05;;;;;;;6.66;63.20;102178.97;1752455;82;20892;-71
2021/10/25 00:11:23;;;;;;;3.83;1.67;;;;;;;6.66;63.24;102178.13;1752484;80;20924;-71
2021/10/25 00:13:50;;;;;;;5.00;2.17;;;;;;;6.64;63.30;102176.84;1752572;82;21116;-71
2021/10/25 00:16:17;;;;;;;2.85;2.12;;;;;;;6.63;63.35;102185.11;1756449;81;20916;-72
2021/10/25 00:18:46;;;;;;;4.37;2.20;;;;;;;6.65;63.43;102182.48;1757944;81;20873;-72
2021/10/25 00:21:14;;;;;;;3.25;2.58;;;;;;;6.68;63.35;102180.27;1758368;81;20931;-72
2021/10/25 00:23:43;;;;;;;2.60;2.22;;;;;;;6.69;63.29;102187.18;1758370;81;21532;-71
2021/10/25 00:26:10;;;;;;;4.80;2.80;;;;;;;6.68;63.23;102186.33;1757956;80;21128;-72
2021/10/25 00:28:37;;;;;;;3.95;2.27;;;;;;;6.67;63.24;102189.84;1757977;80;21032;-71
2021/10/25 00:31:06;;;;;;;7.28;2.70;;;;;;;6.67;63.16;102186.34;1757754;81;20932;-72
2021/10/25 00:33:33;;;;;;;4.15;2.35;;;;;;;6.66;63.19;102191.16;1758022;81;20888;-72
2021/10/25 00:36:00;;;;;;;3.40;2.17;;;;;;;6.63;63.13;102191.62;1757706;81;20971;-71
2021/10/25 00:38:26;;;;;;;4.50;2.20;;;;;;;6.59;63.13;102187.35;1757970;81;22166;-72
2021/10/25 00:40:55;;;;;;;4.75;2.47;;;;;;;6.56;63.17;102193.94;1757775;80;20896;-72
2021/10/25 00:43:22;;;;;;;2.42;2.20;;;;;;;6.53;63.22;102197.88;1757744;81;20888;-72
2021/10/25 00:45:49;;;;;;;4.12;2.25;;;;;;;6.50;63.26;102197.95;1757673;81;20897;-71
2021/10/25 00:48:16;;;;;;;5.45;2.27;;;;;;;6.47;63.33;102195.82;1757820;81;21460;-72
2021/10/25 00:50:43;;;;;;;5.33;2.55;;;;;;;6.46;63.37;102204.55;1758288;81;21109;-72
2021/10/25 00:53:10;;;;;;;3.15;1.95;;;;;;;6.44;63.50;102202.80;1757859;80;20924;-72
2021/10/25 00:55:38;;;;;;;6.42;2.25;;;;;;;6.42;63.56;102212.42;1695490;83;20994;-72
2021/10/25 00:58:07;;;;;;;2.72;2.37;;;;;;;6.41;63.66;102204.62;1721844;83;20896;-72
2021/10/25 01:00:34;;;;;;;2.75;1.90;;;;;;;6.43;63.72;102213.28;1722162;83;21333;-71
2021/10/25 01:03:01;;;;;;;4.90;2.52;;;;;;;6.43;63.73;102216.73;1721833;83;21819;-73
2021/10/25 01:05:30;;;;;;;4.60;2.30;;;;;;;6.45;63.69;102216.72;1721763;83;21400;-73
2021/10/25 01:07:57;;;;;;;3.02;2.50;;;;;;;6.46;63.59;102211.91;1721932;82;20947;-72
2021/10/25 01:10:25;;;;;;;2.42;1.92;;;;;;;6.45;63.54;102218.02;1721848;83;20872;-71
2021/10/25 01:12:53;;;;;;;6.87;3.08;;;;;;;6.41;63.50;102216.35;1719302;82;20887;-71
2021/10/25 01:15:20;;;;;;;4.92;2.30;;;;;;;6.37;63.56;102219.44;1719270;83;21541;-71
2021/10/25 01:17:57;;;;;;;2.37;2.15;;;;;;;6.34;63.67;102225.16;1721911;83;20927;-71
2021/10/25 01:20:27;;;;;;;3.00;2.50;;;;;;;6.29;63.80;102223.05;1721884;83;20864;-72
2021/10/25 01:22:54;;;;;;;4.15;3.75;;;;;;;6.23;63.92;102226.19;1705243;83;20912;-71
2021/10/25 01:25:21;;;;;;;6.20;2.83;;;;;;;6.18;64.07;102229.73;1721854;83;20915;-72
2021/10/25 01:27:50;;;;;;;4.97;3.22;;;;;;;6.15;64.28;102232.39;1721893;83;21142;-71
2021/10/25 01:30:19;;;;;;;7.33;3.47;;;;;;;6.11;64.40;102238.53;1721771;82;20881;-71
2021/10/25 01:32:47;;;;;;;4.92;2.67;;;;;;;6.07;64.62;102237.73;1721915;83;20974;-72
2021/10/25 01:35:15;;;;;;;4.92;2.30;;;;;;;6.06;64.80;102237.30;1721788;82;21314;-71
2021/10/25 01:37:42;;;;;;;2.62;2.33;;;;;;;6.07;64.96;102242.06;1721812;82;20947;-71
2021/10/25 01:40:11;;;;;;;6.03;3.05;;;;;;;6.07;65.09;102243.36;1722010;83;21505;-70
2021/10/25 01:42:38;;;;;;;3.50;2.40;;;;;;;6.08;65.19;102250.31;1721743;82;21492;-73
2021/10/25 01:45:06;;;;;;;4.05;3.30;;;;;;;6.10;65.24;102255.05;1721759;83;20950;-71
2021/10/25 01:47:33;;;;;;;5.67;3.12;;;;;;;6.11;65.20;102256.77;1721892;83;20939;-71
2021/10/25 01:50:00;;;;;;;5.87;4.10;;;;;;;6.10;65.18;102253.75;1721788;83;20923;-71
2021/10/25 01:52:27;;;;;;;7.37;3.67;;;;;;;6.06;65.25;102263.34;1722034;83;21112;-71
2021/10/25 01:54:56;;;;;;;4.53;3.83;;;;;;;6.03;65.38;102262.55;1721801;83;20908;-71
2021/10/25 01:57:23;;;;;;;8.23;4.53;;;;;;;5.99;65.47;102264.32;1721993;83;20852;-72
2021/10/25 01:59:50;;;;;;;9.88;3.75;;;;;;;5.96;65.59;102263.08;1721890;83;20968;-72
2021/10/25 02:02:19;;;;;;;6.20;3.92;;;;;;;5.93;65.71;102265.67;1722055;83;20997;-71
2021/10/25 02:04:46;;;;;;;6.70;3.15;;;;;;;5.89;65.87;102266.17;1721880;83;21166;-72
2021/10/25 02:07:13;;;;;;;5.08;3.40;;;;;;;5.88;66.06;102267.48;1721703;83;20882;-73
2021/10/25 02:09:41;;;;;;;5.97;3.75;;;;;;;5.87;66.25;102269.23;1721789;82;20939;-71
2021/10/25 02:12:07;;;;;;;7.05;4.28;;;;;;;5.86;66.42;102260.99;1722019;83;20871;-74
2021/10/25 02:14:36;;;;;;;9.78;3.85;;;;;;;5.86;66.56;102271.41;1721838;82;20887;-72
2021/10/25 02:17:02;;;;;;;3.87;2.72;;;;;;;5.87;66.72;102278.35;1717506;83;21763;-72
2021/10/25 02:19:32;;;;;;;6.30;3.45;;;;;;;5.90;66.69;102279.59;1751602;80;20912;-72
2021/10/25 02:22:03;;;;;;;6.90;3.37;;;;;;;5.89;66.69;102277.00;1715078;83;21449;-72
2021/10/25 02:24:30;;;;;;;6.92;3.40;;;;;;;5.86;66.74;102277.91;1716377;82;20912;-71
2021/10/25 02:26:57;;;;;;;7.80;4.47;;;;;;;5.86;66.77;102281.81;1716941;83;21452;-71
2021/10/25 02:29:25;;;;;;;8.68;5.28;;;;;;;5.84;66.81;102291.84;1751958;81;21531;-72
2021/10/25 02:31:52;;;;;;;9.00;4.40;;;;;;;5.81;66.87;102290.99;1752729;82;21093;-72
2021/10/25 02:34:19;;;;;;;7.00;4.05;;;;;;;5.81;66.99;102294.90;1752582;82;21003;-71
2021/10/25 02:36:46;;;;;;;7.58;4.33;;;;;;;5.81;67.02;102291.44;1752815;82;20892;-71
2021/10/25 02:39:15;;;;;;;6.92;3.67;;;;;;;5.80;67.12;102297.52;1716040;82;20884;-71
2021/10/25 02:41:43;;;;;;;6.92;3.98;;;;;;;5.78;67.22;102293.65;1716594;83;21496;-72
2021/10/25 02:44:11;;;;;;;7.03;3.90;;;;;;;5.78;67.35;102299.27;1716311;83;20896;-71
2021/10/25 02:46:39;;;;;;;5.42;3.30;;;;;;;5.77;67.46;102304.92;1716474;83;20939;-72
2021/10/25 02:49:06;;;;;;;6.90;3.30;;;;;;;5.78;67.50;102303.17;1716354;83;20912;-72
2021/10/25 02:51:34;;;;;;;6.83;3.60;;;;;;;5.77;67.44;102307.98;1716516;83;21421;-71
2021/10/25 02:54:02;;;;;;;4.42;3.35;;;;;;;5.74;67.48;102307.58;1716625;83;21539;-72
2021/10/25 02:56:32;;;;;;;5.05;3.00;;;;;;;5.73;67.53;102311.49;1751471;81;20885;-72
2021/10/25 02:58:59;;;;;;;6.85;3.05;;;;;;;5.70;67.54;102312.84;1752421;82;20953;-72
2021/10/25 03:01:26;;;;;;;5.75;3.08;;;;;;;5.66;67.58;102319.81;1752448;82;20948;-72
2021/10/25 03:03:55;;;;;;;4.97;2.75;;;;;;;5.64;67.61;102324.63;1716710;83;21409;-72
2021/10/25 03:06:24;;;;;;;11.03;4.50;;;;;;;5.59;67.67;102327.28;1716395;83;21212;-73
2021/10/25 03:08:52;;;;;;;9.25;3.52;;;;;;;5.56;67.79;102322.13;1716337;83;20864;-71
2021/10/25 03:11:19;;;;;;;7.87;4.10;;;;;;;5.53;67.85;102321.70;1716357;83;21044;-73
2021/10/25 03:13:47;;;;;;;7.12;4.70;;;;;;;5.53;68.05;102320.84;1752415;81;20967;-71
2021/10/25 03:16:15;;;;;;;14.33;4.10;;;;;;;5.53;68.11;102327.34;1749666;81;20920;-72
2021/10/25 03:18:42;;;;;;;7.70;4.33;;;;;;;5.52;68.09;102329.55;1744495;81;21542;-71
2021/10/25 03:21:09;;;;;;;5.03;3.20;;;;;;;5.51;68.13;102328.66;1744453;81;20980;-71
2021/10/25 03:23:38;;;;;;;4.67;3.35;;;;;;;5.51;68.12;102335.16;1744336;81;21011;-71
2021/10/25 03:26:05;;;;;;;5.80;3.50;;;;;;;5.50;68.02;102341.70;1744541;82;20877;-72
2021/10/25 03:28:32;;;;;;;9.10;4.12;;;;;;;5.47;68.03;102337.81;1744779;81;21339;-71
2021/10/25 03:30:59;;;;;;;3.22;2.67;;;;;;;5.45;68.04;102342.17;1744481;80;21128;-71
2021/10/25 03:33:28;;;;;;;7.15;3.20;;;;;;;5.44;67.98;102336.11;1744209;82;20996;-72
2021/10/25 03:36:04;;;;;;;5.20;2.70;;;;;;;5.40;67.99;102342.23;1743449;81;21409;-72
2021/10/25 03:38:34;;;;;;;7.35;3.50;;;;;;;5.37;67.97;102346.17;1744420;81;21427;-71
2021/10/25 03:41:01;;;;;;;6.83;3.22;;;;;;;5.34;68.01;102341.02;1744515;80;21394;-71
2021/10/25 03:43:33;;;;;;;6.65;2.55;;;;;;;5.33;68.06;102345.78;1744598;81;21136;-72
2021/10/25 03:46:11;;;;;;;8.45;2.65;;;;;;;5.32;67.98;102345.37;1744326;81;21481;-71
2021/10/25 03:48:30;;;;;;;4.60;3.83;;;;;;;5.33;68.04;102354.88;1743901;81;20980;-71
2021/10/25 03:50:55;;;;;;;7.53;3.20;;;;;;;5.35;67.84;102359.63;1744398;81;21039;-70
2021/10/25 03:53:46;;;;;;;3.75;2.60;;;;;;;5.33;67.64;102358.34;1708896;83;20979;-71
2021/10/25 03:56:16;;;;;;;3.40;3.00;;;;;;;5.30;67.36;102355.78;1708312;83;22091;-71
2021/10/25 04:04:32;;;;;;;2.60;2.00;;;;;;;5.23;66.47;102376.23;1744360;82;21007;-71
2021/10/25 04:13:05;;;;;;;5.75;2.30;;;;;;;5.16;66.00;102381.92;1744440;82;21155;-71
2021/10/25 04:26:37;;;;;;;7.85;2.40;;;;;;;5.19;64.55;102391.44;1721705;82;20982;-71
2021/10/25 04:28:46;;;;;;;3.27;2.30;;;;;;;5.20;64.19;102398.34;1717074;82;21030;-72
2021/10/25 04:31:12;;;;;;;4.15;2.17;;;;;;;5.20;63.91;102397.05;1721877;83;21356;-76
2021/10/25 04:33:41;;;;;;;4.05;2.17;;;;;;;5.15;63.36;102393.19;1695142;83;21488;-76
2021/10/25 04:36:13;;;;;;;5.78;2.55;;;;;;;5.14;63.33;102397.13;1700462;83;21536;-77
2021/10/25 04:38:42;;;;;;;4.58;2.10;;;;;;;5.12;63.26;102397.13;1721006;83;21012;-76
2021/10/25 04:41:09;;;;;;;5.58;2.85;;;;;;;5.11;63.08;102401.92;1722051;83;21365;-75
2021/10/25 04:43:39;;;;;;;7.90;2.90;;;;;;;5.11;62.89;102402.33;1721810;83;21527;-76
2021/10/25 04:46:07;;;;;;;7.37;3.42;;;;;;;5.09;62.78;102407.56;1721871;83;20947;-75
2021/10/25 04:48:35;;;;;;;3.08;1.82;;;;;;;5.08;62.58;102404.97;1722062;83;21500;-75
2021/10/25 04:51:04;;;;;;;4.12;2.50;;;;;;;5.06;62.34;102406.72;1720821;83;20915;-76
2021/10/25 04:53:38;;;;;;;;;;;;;;;5.05;62.43;102404.56;1724036;83;20995;-78
2021/10/25 04:56:06;;;;;;;7.83;1.50;;;;;;;5.04;62.14;102415.82;1703930;84;20192;-78
2021/10/25 04:58:33;;;;;;;3.47;1.95;;;;;;;5.02;62.10;102415.41;1704001;84;20929;-76
2021/10/25 05:01:00;;;;;;;1.75;1.45;;;;;;;5.01;62.11;102421.05;1704387;84;21256;-77
2021/10/25 05:03:28;;;;;;;3.45;1.77;;;;;;;5.03;62.00;102428.41;1704503;84;20972;-76
2021/10/25 05:05:56;;;;;;;2.85;1.60;;;;;;;5.06;61.89;102424.47;1703851;84;20996;-77
2021/10/25 05:08:26;;;;;;;1.57;1.47;;;;;;;5.09;61.72;102430.08;1703774;84;21366;-75
2021/10/25 05:10:52;;;;;;;2.37;1.60;;;;;;;5.13;61.86;102434.39;1703519;84;21328;-76
2021/10/25 05:13:19;;;;;;;5.12;2.05;;;;;;;5.19;61.56;102437.80;1703776;84;21138;-77
2021/10/25 05:15:46;;;;;;;5.33;1.75;;;;;;;5.26;61.34;102436.45;1704063;84;20954;-77
2021/10/25 05:18:13;;;;;;;10.58;2.58;;;;;;;5.32;61.00;102445.52;1696331;84;20934;-78
2021/10/25 05:20:41;;;;;;;4.70;1.70;;;;;;;5.38;60.80;102448.04;1695862;84;20937;-79
2021/10/25 05:23:10;;;;;;;3.52;1.75;;;;;;;5.44;60.56;102451.89;1708551;83;21031;-80
2021/10/25 05:25:37;;;;;;;4.67;1.70;;;;;;;5.47;60.14;102455.80;1708903;84;21119;-79
2021/10/25 05:28:04;;;;;;;3.95;2.10;;;;;;;5.46;59.94;102463.16;1708800;83;21441;-79
2021/10/25 05:30:32;;;;;;;3.75;1.70;;;;;;;5.46;59.86;102467.05;1708594;83;20933;-78
2021/10/25 05:32:59;;;;;;;3.47;1.40;;;;;;;5.48;59.85;102470.95;1708464;84;20988;-79
2021/10/25 05:35:26;;;;;;;3.20;1.50;;;;;;;5.50;59.47;102482.22;1708894;84;20865;-78
2021/10/25 05:37:53;;;;;;;3.67;1.47;;;;;;;5.52;59.34;102486.97;1708603;83;21496;-78
2021/10/25 05:40:20;;;;;;;5.37;1.47;;;;;;;5.57;59.30;102486.48;1708842;83;21482;-78
2021/10/25 05:42:49;;;;;;;2.00;1.42;;;;;;;5.68;59.25;102491.59;1708299;83;21012;-79
2021/10/25 05:45:16;;;;;;;2.45;1.62;;;;;;;5.79;58.86;102488.00;1708706;83;20893;-78
2021/10/25 05:47:43;;;;;;;2.05;1.40;;;;;;;5.91;58.44;102493.95;1708833;84;20980;-78
2021/10/25 05:50:11;;;;;;;5.33;1.37;;;;;;;6.20;58.14;102497.16;1708877;83;21846;-80
2021/10/25 05:52:39;;;;;;;1.90;1.22;;;;;;;6.61;56.94;102510.56;1708976;83;20925;-78
2021/10/25 05:55:08;;;;;;;4.45;1.65;;;;;;;6.87;56.02;102506.30;1709190;83;21039;-78
2021/10/25 05:57:37;;;;;;;4.83;1.22;;;;;;;7.10;55.13;102519.45;1708719;84;20992;-78
2021/10/25 06:00:06;;;;;;;3.50;1.10;;;;;;;7.57;54.56;102521.75;1708750;83;21327;-79
2021/10/25 06:02:37;;;;;;;1.70;1.00;;;;;;;8.21;53.16;102525.80;1707971;84;20882;-80
2021/10/25 06:05:09;;;;;;;1.20;1.10;;;;;;;9.02;51.32;102526.33;1682850;83;20909;-80
2021/10/25 06:07:39;;;;;;;3.65;1.27;;;;;;;9.81;49.48;102526.60;1707478;84;20913;-80
2021/10/25 06:10:10;;;;;;;4.62;1.40;;;;;;;10.51;47.44;102531.22;1680689;84;20901;-77
2021/10/25 06:12:41;;;;;;;2.35;1.00;;;;;;;10.94;46.42;102529.95;1708660;83;21020;-78
2021/10/25 06:15:21;;;;;;;0.93;0.90;;;;;;;11.08;45.40;102529.98;1707655;84;21264;-77
2021/10/25 06:17:56;;;;;;;1.35;1.05;;;;;;;10.79;45.18;102532.59;1708675;83;20909;-78
2021/10/25 06:20:27;;;;;;;2.80;1.92;;;;;;;10.38;45.68;102529.86;1708673;83;21437;-78
2021/10/25 06:22:55;;;;;;;3.08;1.40;;;;;;;9.98;46.36;102532.23;1708599;84;20912;-74
2021/10/25 06:25:25;;;;;;;2.72;1.22;;;;;;;9.64;47.01;102523.95;1708601;83;20905;-74
2021/10/25 06:27:54;;;;;;;6.12;1.52;;;;;;;9.33;47.52;102526.47;1705998;84;21829;-75
2021/10/25 06:30:21;;;;;;;1.95;1.22;;;;;;;9.02;47.94;102518.47;1708555;83;20977;-75
2021/10/25 06:32:49;;;;;;;2.35;1.15;;;;;;;8.68;48.49;102524.00;1708546;84;20996;-77
2021/10/25 06:35:31;;;;;;;1.77;1.25;;;;;;;8.36;49.22;102532.92;1705925;84;21004;-76
2021/10/25 06:38:09;;;;;;;1.50;1.30;;;;;;;8.11;49.99;102533.39;1680001;84;21004;-78
2021/10/25 06:40:33;;;;;;;1.98;1.22;;;;;;;7.98;50.54;102526.67;1708078;84;21223;-75
2021/10/25 06:43:00;;;;;;;4.72;1.95;;;;;;;7.78;50.76;102521.81;1708808;83;20912;-76
2021/10/25 06:45:27;;;;;;;2.05;1.45;;;;;;;7.58;50.93;102528.67;1709097;84;21065;-75
2021/10/25 06:47:54;;;;;;;2.60;1.05;;;;;;;7.36;51.41;102522.52;1708576;83;20901;-76
2021/10/25 06:50:25;;;;;;;1.17;1.07;;;;;;;7.22;51.77;102518.80;1708560;83;20952;-76
2021/10/25 06:53:04;;;;;;;2.40;1.40;;;;;;;7.03;52.11;102526.05;1708551;84;21160;-75
2021/10/25 06:55:34;;;;;;;2.95;1.37;;;;;;;6.91;52.35;102530.12;1708026;84;20877;-75
2021/10/25 06:58:02;;;;;;;3.00;1.37;;;;;;;6.77;52.86;102535.98;1708725;84;21375;-73
2021/10/25 07:00:29;;;;;;;6.50;1.77;;;;;;;6.67;53.26;102535.67;1708488;84;20976;-72
2021/10/25 07:02:57;;;;;;;3.77;1.75;;;;;;;6.57;53.62;102539.70;1708489;83;20873;-74
2021/10/25 07:05:30;;;;;;;3.67;1.60;;;;;;;6.52;53.67;102539.35;1708448;84;21528;-75
2021/10/25 07:07:56;;;;;;;3.02;1.30;;;;;;;6.51;54.11;102544.13;1708625;84;20945;-75
2021/10/25 07:10:23;;;;;;;4.75;1.40;;;;;;;6.52;54.19;102543.27;1708566;84;20929;-73
2021/10/25 07:12:52;;;;;;;8.18;2.40;;;;;;;6.49;54.05;102544.58;1708413;83;20949;-74
2021/10/25 07:15:21;;;;;;;2.92;1.55;;;;;;;6.40;54.11;102541.64;1708456;83;20921;-73
2021/10/25 07:20:42;;;;;;;1.82;1.32;;;;;;;6.27;54.21;102546.16;1708531;84;20889;-73
2021/10/25 08:07:25;;;;;;;3.12;1.52;;;;;;;6.72;52.17;102563.88;1708452;83;20090;-73
2021/10/25 08:09:56;;;;;;;2.10;1.45;;;;;;;6.76;51.84;102555.98;1697738;84;20924;-74
2021/10/25 08:12:26;;;;;;;2.80;1.30;;;;;;;6.86;51.21;102556.72;1708774;84;21465;-75
2021/10/25 08:14:56;;;;;;;3.45;1.20;;;;;;;7.17;50.57;102557.16;1708280;83;20996;-75
2021/10/25 08:17:22;;;;;;;2.85;0.98;;;;;;;7.86;48.84;102564.34;1708739;83;20944;-75
2021/10/25 08:19:50;;;;;;;2.08;1.20;;;;;;;8.83;46.49;102557.28;1713966;83;20992;-75
2021/10/25 08:22:17;;;;;;;1.35;0.75;;;;;;;9.81;44.10;102557.59;1714276;83;20869;-74
2021/10/25 08:24:48;;;;;;;2.08;0.85;;;;;;;10.66;42.21;102561.87;1714114;83;21162;-76
2021/10/25 08:27:18;;;;;;;2.92;0.80;;;;;;;11.45;41.25;102556.37;1714381;83;20940;-74
2021/10/25 08:34:54;;;;;;;1.15;0.62;;;;;;;13.91;35.74;102553.30;1789767;80;20907;-76
2021/10/25 08:40:03;;;;;;;1.90;0.78;;;;;;;15.74;32.98;102555.41;1789384;80;20927;-76
2021/10/25 08:42:34;;;;;;;2.75;0.33;;;;;;;16.51;31.17;102560.62;1789534;80;20868;-76
2021/10/25 08:45:13;;;;;;;1.92;0.50;;;;;;;17.22;29.80;102558.92;1789535;80;21349;-79
2021/10/25 08:47:39;;;;;;;0.50;0.50;;;;;;;17.82;28.38;102563.43;1788702;80;20971;-72
2021/10/25 08:50:09;;;;;;;2.25;0.65;;;;;;;18.29;27.43;102566.33;1789791;80;21311;-76
2021/10/25 08:52:36;;;;;;;0.95;0.47;;;;;;;18.67;26.65;102566.22;1789806;79;20891;-83
2021/10/25 08:55:07;;;;;;;1.95;0.50;;;;;;;19.01;26.63;102569.80;1789742;80;20884;-76
2021/10/25 08:57:35;;;;;;;0.90;0.40;;;;;;;19.32;25.49;102562.93;1789638;80;20904;-79
2021/10/25 09:00:21;;;;;;;2.70;0.78;;;;;;;19.60;25.10;102565.46;1789434;80;20939;-81
2021/10/25 09:03:00;;;;;;;1.15;0.50;;;;;;;19.99;24.80;102569.08;1749351;80;21835;-77
2021/10/25 09:05:27;;;;;;;0.90;0.60;;;;;;;20.29;24.03;102575.88;1789944;80;20852;-81
2021/10/25 09:08:04;;;;;;;5.90;0.72;;;;;;;20.32;23.39;102578.81;1790348;80;20919;-81
2021/10/25 09:10:40;;;;;;;3.10;0.53;;;;;;;20.43;22.85;102575.78;1790374;80;20856;-80
2021/10/25 09:13:17;;;;;;;1.87;0.80;;;;;;;20.40;23.56;102572.47;1790707;80;21357;-80
2021/10/25 09:15:51;;;;;;;3.30;1.30;;;;;;;20.41;23.58;102579.48;1790415;80;21189;-83
2021/10/25 09:18:26;;;;;;;1.57;0.78;;;;;;;20.22;23.66;102573.28;1753779;80;20892;-83
2021/10/25 09:20:58;;;;;;;0.42;0.42;;;;;;;19.62;23.80;102573.35;1790580;80;20975;-85
2021/10/25 09:23:31;;;;;;;2.80;1.10;;;;;;;19.02;24.53;102577.30;1790064;80;21417;-82
2021/10/25 09:26:04;;;;;;;5.05;1.07;;;;;;;18.55;25.11;102570.51;1733139;76;20927;-82
2021/10/25 09:28:40;;;;;;;2.92;0.80;;;;;;;18.13;25.53;102574.38;1665946;86;21150;-84
2021/10/25 09:31:13;;;;;;;1.30;0.93;;;;;;;17.90;25.61;102570.47;1665575;86;20943;-83
2021/10/25 09:33:42;;;;;;;5.42;0.82;;;;;;;17.52;25.92;102573.55;1659570;85;20999;-83
2021/10/25 09:36:14;;;;;;;2.87;0.62;;;;;;;17.34;25.87;102566.64;1661621;86;20955;-84
2021/10/25 09:49:33;;;;;;;1.77;0.90;;;;;;;15.74;27.67;102565.98;1665097;86;20999;-83
2021/10/25 09:52:02;;;;;;;1.95;0.95;;;;;;;16.10;27.68;102572.48;1665076;86;20966;-84
2021/10/25 09:54:32;;;;;;;2.20;0.90;;;;;;;16.62;27.13;102570.17;1651940;86;21217;-83
2021/10/25 09:57:09;;;;;;;2.85;1.05;;;;;;;17.07;26.87;102564.62;1665793;86;21007;-82
2021/10/25 09:59:55;;;;;;;;;;;;;;;17.65;26.76;102564.86;1668426;86;20955;-81
2021/10/25 10:02:27;;;;;;;2.05;0.68;;;;;;;18.32;26.13;102565.28;1662662;86;20151;-82
2021/10/25 10:05:03;;;;;;;2.87;0.62;;;;;;;18.75;25.13;102559.95;1665724;86;21860;-83
2021/10/25 10:07:26;;;;;;;2.20;1.07;;;;;;;19.20;24.80;102553.48;1663992;86;21148;-82
2021/10/25 10:09:55;;;;;;;2.67;0.90;;;;;;;19.01;23.83;102569.80;1665041;86;21034;-82
2021/10/25 10:12:24;;;;;;;1.15;0.60;;;;;;;18.26;24.40;102565.20;1665979;86;21380;-81
2021/10/25 10:14:59;;;;;;;1.27;0.82;;;;;;;17.37;25.20;102567.33;1665615;86;20919;-80
2021/10/25 10:17:30;;;;;;;5.67;1.00;;;;;;;16.64;26.09;102566.13;1665577;86;20967;-81
2021/10/25 10:20:06;;;;;;;1.85;0.80;;;;;;;15.94;26.79;102571.11;1666071;86;21054;-80
2021/10/25 10:22:35;;;;;;;6.58;1.10;;;;;;;15.65;27.57;102564.63;1664548;86;20928;-82
2021/10/25 10:25:05;;;;;;;1.92;0.80;;;;;;;15.86;27.88;102561.38;1664805;86;21361;-81
2021/10/25 10:27:33;;;;;;;2.60;0.93;;;;;;;16.25;27.40;102559.37;1672759;85;21126;-84
2021/10/25 10:30:00;;;;;;;0.98;0.85;;;;;;;16.80;27.00;102556.42;1674644;85;20972;-81
2021/10/25 10:32:31;;;;;;;3.87;1.10;;;;;;;17.44;26.21;102545.77;1673940;85;21629;-83
2021/10/25 10:35:17;;;;;;;1.22;0.88;;;;;;;18.04;26.04;102552.86;1673681;85;21513;-81
2021/10/25 10:38:02;;;;;;;1.85;0.70;;;;;;;18.64;25.36;102545.52;1674009;85;21441;-83
2021/10/25 10:40:42;;;;;;;2.02;0.65;;;;;;;19.09;24.69;102558.65;1674051;85;20980;-83
2021/10/25 10:43:25;;;;;;;2.83;0.70;;;;;;;19.35;24.32;102552.11;1670492;85;20889;-80
2021/10/25 10:46:11;;;;;;;0.82;0.68;;;;;;;18.89;23.34;102550.63;1671426;85;21158;-83
2021/10/25 10:48:37;;;;;;;1.77;0.90;;;;;;;17.75;24.14;102550.12;1673880;85;20917;-83
2021/10/25 10:51:10;;;;;;;1.25;0.70;;;;;;;16.75;25.41;102558.44;1675140;85;21378;-80
2021/10/25 10:53:51;;;;;;;1.65;0.72;;;;;;;16.14;26.22;102555.52;1674375;85;20968;-84
2021/10/25 10:56:21;;;;;;;5.37;1.30;;;;;;;15.40;26.99;102542.48;1673629;84;21093;-82
2021/10/25 10:58:54;;;;;;;1.47;1.02;;;;;;;14.85;27.78;102555.28;1674157;85;21146;-82
2021/10/25 11:01:19;;;;;;;1.57;0.80;;;;;;;14.38;28.60;102543.75;1674094;85;21486;-82
2021/10/25 11:04:04;;;;;;;1.00;0.82;;;;;;;14.13;29.30;102548.42;1672091;85;21016;-83
2021/10/25 11:06:33;;;;;;;5.08;1.10;;;;;;;13.98;29.50;102557.85;1675302;85;20948;-83
2021/10/25 11:09:11;;;;;;;3.50;1.40;;;;;;;13.66;29.81;102547.75;1673757;85;20952;-84
2021/10/25 11:11:42;;;;;;;2.67;1.10;;;;;;;13.39;30.21;102548.45;1673814;85;20980;-85
2021/10/25 11:14:14;;;;;;;2.90;0.80;;;;;;;13.24;30.62;102563.06;1673968;85;20977;-83
2021/10/25 11:16:44;;;;;;;2.05;0.85;;;;;;;13.05;30.59;102554.19;1674193;85;20917;-80
2021/10/25 11:19:11;;;;;;;5.35;0.70;;;;;;;12.78;31.06;102560.92;1674110;85;20957;-84
2021/10/25 11:21:45;;;;;;;2.00;0.75;;;;;;;12.43;31.12;102550.40;1674198;85;20992;-83
2021/10/25 11:24:14;;;;;;;1.47;0.95;;;;;;;12.13;31.70;102554.52;1674021;85;21185;-84
2021/10/25 11:26:45;;;;;;;3.00;1.00;;;;;;;11.95;32.01;102548.13;1674037;85;20925;-84
2021/10/25 11:29:16;;;;;;;3.80;1.10;;;;;;;11.84;32.06;102550.25;1674794;85;20917;-83
2021/10/25 11:31:56;;;;;;;3.30;1.15;;;;;;;11.71;32.19;102551.11;1674692;85;20916;-87
2021/10/25 11:34:28;;;;;;;4.53;1.42;;;;;;;11.62;32.77;102550.95;1674983;85;20909;-81
2021/10/25 11:37:10;;;;;;;2.98;1.05;;;;;;;11.61;32.86;102556.29;1674511;85;21212;-83
2021/10/25 11:39:52;;;;;;;1.65;1.10;;;;;;;11.81;33.02;102552.99;1674527;85;21477;-84
2021/10/25 11:42:25;;;;;;;1.07;0.72;;;;;;;11.93;32.64;102550.42;1674920;85;20953;-86
2021/10/25 11:44:55;;;;;;;2.77;1.40;;;;;;;12.03;32.54;102554.00;1674602;85;21410;-83
2021/10/25 11:47:24;;;;;;;3.25;1.40;;;;;;;12.10;32.51;102552.47;1674979;85;20913;-82
2021/10/25 11:50:00;;;;;;;2.52;0.78;;;;;;;12.12;32.36;102544.92;1675501;85;21138;-84
2021/10/25 11:52:43;;;;;;;0.80;0.57;;;;;;;12.10;32.41;102550.69;1674670;85;21075;-85
2021/10/25 11:55:13;;;;;;;2.77;0.82;;;;;;;11.99;32.36;102553.69;1675061;85;20917;-82
2021/10/25 11:57:53;;;;;;;1.80;1.20;;;;;;;11.93;32.55;102560.47;1674848;85;21000;-81
2021/10/25 12:00:26;;;;;;;1.45;1.00;;;;;;;11.88;32.55;102550.58;1674773;85;21006;-86
2021/10/25 12:03:07;;;;;;;5.80;1.32;;;;;;;11.84;32.49;102543.67;1673098;85;21595;-84
2021/10/25 12:05:34;;;;;;;1.82;0.85;;;;;;;11.77;32.64;102547.43;1674800;85;20885;-84
2021/10/25 12:08:01;;;;;;;3.42;1.72;;;;;;;11.70;32.92;102548.09;1674755;85;20929;-86
2021/10/25 12:10:29;;;;;;;2.58;1.05;;;;;;;11.64;33.01;102545.66;1674333;85;21509;-83
2021/10/25 12:13:02;;;;;;;5.72;1.20;;;;;;;11.53;32.71;102546.48;1674518;85;20917;-82
2021/10/25 12:15:32;;;;;;;2.40;1.02;;;;;;;11.40;33.01;102547.33;1673622;85;21173;-78
2021/10/25 12:18:01;;;;;;;3.00;0.82;;;;;;;11.28;32.71;102549.05;1674033;85;20974;-78
2021/10/25 12:20:32;;;;;;;3.35;0.80;;;;;;;11.18;32.65;102551.97;1673687;85;20925;-78
2021/10/25 12:23:11;;;;;;;2.08;1.02;;;;;;;11.16;33.04;102551.59;1674129;85;20988;-78
2021/10/25 12:25:38;;;;;;;1.67;0.82;;;;;;;11.13;33.43;102548.61;1673766;85;21433;-81
2021/10/25 12:28:14;;;;;;;2.17;1.27;;;;;;;11.11;33.63;102548.26;1657210;84;21070;-79
2021/10/25 12:30:41;;;;;;;3.10;2.15;;;;;;;11.04;33.66;102546.27;1652257;86;20951;-79
2021/10/25 12:33:07;;;;;;;4.20;1.67;;;;;;;10.97;33.61;102550.86;1652600;86;21000;-77
2021/10/25 12:35:41;;;;;;;1.80;1.30;;;;;;;10.93;33.57;102552.31;1652210;86;21677;-81
2021/10/25 12:38:11;;;;;;;3.47;1.12;;;;;;;10.84;33.76;102552.13;1652586;86;21417;-80
2021/10/25 12:40:57;;;;;;;1.22;1.00;;;;;;;10.78;34.14;102557.12;1652204;87;21114;-79
2021/10/25 12:43:24;;;;;;;3.15;1.22;;;;;;;10.70;34.08;102555.63;1652309;86;20916;-77
2021/10/25 12:46:06;;;;;;;3.22;1.00;;;;;;;10.56;34.17;102560.83;1652635;87;21017;-81
2021/10/25 12:48:50;;;;;;;2.42;1.40;;;;;;;10.43;34.23;102563.39;1654463;86;20940;-87
2021/10/25 12:51:18;;;;;;;1.65;1.00;;;;;;;10.29;34.33;102558.54;1652614;87;21094;-80
2021/10/25 12:53:48;;;;;;;2.58;1.75;;;;;;;10.17;34.46;102558.83;1652727;86;21139;-82
2021/10/25 12:56:29;;;;;;;3.10;1.07;;;;;;;10.07;34.79;102553.41;1652482;86;20967;-81
2021/10/25 12:59:02;;;;;;;2.42;1.30;;;;;;;9.98;35.12;102553.20;1652646;86;20940;-81
2021/10/25 13:01:29;;;;;;;2.20;1.40;;;;;;;9.90;35.33;102549.48;1651682;86;21509;-80
2021/10/25 13:03:59;;;;;;;1.92;0.80;;;;;;;9.81;34.91;102554.97;1652473;87;21115;-83
2021/10/25 13:06:29;;;;;;;0.85;0.60;;;;;;;9.72;35.21;102556.52;1652326;86;22193;-83
2021/10/25 13:09:08;;;;;;;2.98;1.00;;;;;;;9.64;35.37;102551.91;1652389;86;21295;-81
2021/10/25 13:11:36;;;;;;;3.92;1.37;;;;;;;9.55;35.37;102555.61;1652491;87;20885;-84
2021/10/25 13:14:06;;;;;;;3.15;1.10;;;;;;;9.47;35.39;102557.12;1652779;86;20908;-83